Time;durP1;ratioP1;P1;durP2;ratioP2;P2;SDS_P1;SDS_P2;PMS_P1;PMS_P2;Temp;Humidity;BMP_temperature;BMP_pressure;BME280_temperature;BME280_humidity;BME280_pressure;Samples;Min_cycle;Max_cycle;Signal;HPM_P1;HPM_P2
2023/07/20 00:00:25;;;;;;;12.10;8.50;;;;;;;-145.18;100.00;46660.41;5070967;28;20519;-60
2023/07/20 00:02:50;;;;;;;16.40;9.63;;;;;;;-145.18;100.00;46660.41;5070937;28;20037;-60
2023/07/20 00:05:18;;;;;;;14.50;9.13;;;;;;;-145.18;100.00;46660.41;5070279;28;20503;-61
2023/07/20 00:07:44;;;;;;;14.97;10.40;;;;;;;-145.18;100.00;46660.41;5071033;28;20032;-60
2023/07/20 00:10:09;;;;;;;15.77;9.83;;;;;;;-145.18;100.00;46660.41;5070900;28;20593;-61
2023/07/20 00:12:35;;;;;;;15.27;9.87;;;;;;;-145.18;100.00;46660.41;5070883;28;20025;-60
2023/07/20 00:15:00;;;;;;;15.83;9.67;;;;;;;-145.18;100.00;46660.41;5069264;28;20400;-60
2023/07/20 00:17:26;;;;;;;13.60;9.20;;;;;;;-145.18;100.00;46660.41;5070570;28;20029;-61
2023/07/20 00:19:51;;;;;;;13.30;9.50;;;;;;;-145.18;100.00;46660.41;5070164;28;20028;-60
2023/07/20 00:22:16;;;;;;;14.90;9.37;;;;;;;-145.18;100.00;46660.41;5070880;28;20126;-60
2023/07/20 00:24:42;;;;;;;16.30;9.90;;;;;;;-145.18;100.00;46660.41;5069006;28;20039;-60
2023/07/20 00:27:07;;;;;;;15.13;10.20;;;;;;;-145.18;100.00;46660.41;5069152;28;20052;-60
2023/07/20 00:29:33;;;;;;;15.83;10.00;;;;;;;-145.18;100.00;46660.41;5070120;28;20041;-60
2023/07/20 00:31:58;;;;;;;15.10;10.40;;;;;;;-145.18;100.00;46660.41;5070988;28;20028;-60
2023/07/20 00:34:24;;;;;;;14.80;9.47;;;;;;;-145.18;100.00;46660.41;5074304;28;20028;-60
2023/07/20 00:36:50;;;;;;;17.03;10.57;;;;;;;-145.18;100.00;46660.41;5072504;28;20033;-60
2023/07/20 00:39:15;;;;;;;15.20;9.53;;;;;;;-145.18;100.00;46660.41;5073957;28;20511;-60
2023/07/20 00:41:41;;;;;;;14.90;9.63;;;;;;;-145.18;100.00;46660.41;5073218;28;20126;-60
2023/07/20 00:44:06;;;;;;;17.30;10.60;;;;;;;-145.18;100.00;46660.41;5072295;28;20035;-60
2023/07/20 00:46:32;;;;;;;17.00;11.13;;;;;;;-145.18;100.00;46660.41;5074056;28;20028;-60
2023/07/20 00:48:58;;;;;;;19.70;11.80;;;;;;;-145.18;100.00;46660.41;5072272;28;20024;-60
2023/07/20 00:51:26;;;;;;;22.33;12.17;;;;;;;-145.18;100.00;46660.41;5073559;28;20035;-60
2023/07/20 00:53:52;;;;;;;23.80;12.87;;;;;;;-145.18;100.00;46660.41;5073830;28;20044;-60
2023/07/20 00:56:17;;;;;;;25.53;13.53;;;;;;;-145.18;100.00;46660.41;5074072;28;20527;-60
2023/07/20 00:58:43;;;;;;;19.70;13.00;;;;;;;-145.18;100.00;46660.41;5073470;28;20651;-60
2023/07/20 01:01:08;;;;;;;22.67;14.17;;;;;;;-145.18;100.00;46660.41;5071662;28;20041;-60
2023/07/20 01:03:34;;;;;;;24.27;13.80;;;;;;;-145.18;100.00;46660.41;5073679;28;20446;-60
2023/07/20 01:06:15;;;;;;;25.53;14.13;;;;;;;-145.18;100.00;46660.41;5073566;28;20035;-60
2023/07/20 01:08:47;;;;;;;29.80;14.93;;;;;;;-145.18;100.00;46660.41;5071908;28;20044;-60
2023/07/20 01:11:17;;;;;;;19.40;13.33;;;;;;;-145.18;100.00;46660.41;5073270;28;20428;-61
2023/07/20 01:13:43;;;;;;;24.23;14.17;;;;;;;-145.18;100.00;46660.41;5070848;28;20021;-60
2023/07/20 01:16:09;;;;;;;23.20;14.33;;;;;;;-145.18;100.00;46660.41;5073343;28;20048;-60
2023/07/20 01:18:34;;;;;;;22.57;13.53;;;;;;;-145.18;100.00;46660.41;5072907;28;20107;-60
2023/07/20 01:21:08;;;;;;;21.90;13.53;;;;;;;-145.18;100.00;46660.41;5072020;28;20032;-60
2023/07/20 01:24:04;;;;;;;20.27;12.83;;;;;;;-145.18;100.00;46660.41;5073198;28;20025;-60
2023/07/20 01:27:18;;;;;;;22.52;12.98;;;;;;;-145.18;100.00;46660.41;5071667;28;20071;-60
2023/07/20 01:30:08;;;;;;;24.20;14.13;;;;;;;-145.18;100.00;46660.41;5069227;28;20492;-60
2023/07/20 01:32:36;;;;;;;24.53;14.83;;;;;;;-145.18;100.00;46660.41;5070383;28;20480;-60
2023/07/20 01:35:05;;;;;;;24.60;14.27;;;;;;;-145.18;100.00;46660.41;5072377;28;20063;-61
2023/07/20 01:37:31;;;;;;;28.90;16.20;;;;;;;-145.18;100.00;46660.41;5071962;28;20555;-60
2023/07/20 01:39:58;;;;;;;26.00;15.57;;;;;;;-145.18;100.00;46660.41;5072538;28;20039;-60
2023/07/20 01:42:24;;;;;;;21.07;14.37;;;;;;;-145.18;100.00;46660.41;5072698;28;20029;-60
2023/07/20 01:44:53;;;;;;;22.10;15.00;;;;;;;-145.18;100.00;46660.41;5072635;28;20506;-60
2023/07/20 01:47:19;;;;;;;25.27;15.83;;;;;;;-145.18;100.00;46660.41;5071850;28;20036;-60
2023/07/20 01:49:44;;;;;;;21.67;14.17;;;;;;;-145.18;100.00;46660.41;5072850;28;20040;-60
2023/07/20 01:52:10;;;;;;;22.83;14.40;;;;;;;-145.18;100.00;46660.41;5072795;28;20052;-60
2023/07/20 01:54:35;;;;;;;21.93;14.10;;;;;;;-145.18;100.00;46660.41;5072458;28;20399;-61
2023/07/20 01:57:00;;;;;;;22.37;13.60;;;;;;;-145.18;100.00;46656.50;5072580;28;20154;-61
2023/07/20 01:59:26;;;;;;;26.03;14.67;;;;;;;-145.18;100.00;46660.41;5070195;28;20028;-60
2023/07/20 02:01:52;;;;;;;21.33;14.03;;;;;;;-145.18;100.00;46660.41;5071550;28;20036;-60
2023/07/20 02:04:17;;;;;;;24.17;14.70;;;;;;;-145.18;100.00;46656.50;5072170;28;20036;-60
2023/07/20 02:06:43;;;;;;;24.67;14.07;;;;;;;-145.18;100.00;46660.41;5072250;28;20373;-61
2023/07/20 02:09:08;;;;;;;24.83;15.23;;;;;;;-145.18;100.00;46658.44;5071948;28;20498;-60
2023/07/20 02:11:33;;;;;;;25.30;15.77;;;;;;;-145.18;100.00;46660.41;5072001;28;20033;-60
2023/07/20 02:13:59;;;;;;;24.47;14.57;;;;;;;-145.18;100.00;46660.41;5072018;28;20514;-60
2023/07/20 02:16:24;;;;;;;25.00;15.30;;;;;;;-145.18;100.00;46660.41;5070803;28;20037;-60
2023/07/20 02:18:49;;;;;;;23.10;14.93;;;;;;;-145.18;100.00;46660.41;5071844;28;20032;-60
2023/07/20 02:21:15;;;;;;;22.87;13.97;;;;;;;-145.18;100.00;46660.41;5071826;28;20430;-61
2023/07/20 02:23:40;;;;;;;20.70;14.27;;;;;;;-145.18;100.00;46660.41;5071647;28;20032;-60
2023/07/20 02:26:05;;;;;;;21.63;13.73;;;;;;;-145.18;100.00;46658.44;5071467;28;20146;-60
2023/07/20 02:28:31;;;;;;;22.33;13.77;;;;;;;-145.18;100.00;46658.44;5071510;28;20718;-60
2023/07/20 02:30:57;;;;;;;19.43;13.37;;;;;;;-145.18;100.00;46660.41;5069228;28;20024;-61
2023/07/20 02:33:22;;;;;;;20.13;13.20;;;;;;;-145.18;100.00;46660.41;5070169;28;20067;-61
2023/07/20 02:35:48;;;;;;;22.80;13.03;;;;;;;-145.18;100.00;46660.41;5071088;28;20111;-60
2023/07/20 02:38:13;;;;;;;22.10;13.90;;;;;;;-145.18;100.00;46660.41;5071413;28;20480;-60
2023/07/20 02:40:39;;;;;;;20.70;13.47;;;;;;;-145.18;100.00;46660.41;5071583;28;20472;-61
2023/07/20 02:43:04;;;;;;;19.40;12.03;;;;;;;-145.18;100.00;46660.41;5069445;28;20104;-60
2023/07/20 02:45:30;;;;;;;22.23;12.73;;;;;;;-145.18;100.00;46660.41;5071330;28;20067;-61
2023/07/20 02:47:55;;;;;;;18.77;11.87;;;;;;;-145.18;100.00;46660.41;5070827;28;20029;-60
2023/07/20 02:50:20;;;;;;;17.30;11.27;;;;;;;-145.18;100.00;46660.41;5069703;28;20025;-60
2023/07/20 02:52:46;;;;;;;17.93;11.03;;;;;;;-145.18;100.00;46660.41;5071451;28;20549;-60
2023/07/20 02:55:11;;;;;;;18.10;11.77;;;;;;;-145.18;100.00;46623.28;5070609;28;20060;-61
2023/07/20 02:57:36;;;;;;;19.30;11.63;;;;;;;-145.18;100.00;46623.28;5069730;28;20028;-60
2023/07/20 03:00:05;;;;;;;18.00;10.77;;;;;;;-145.18;100.00;46625.22;5071333;28;20063;-61
2023/07/20 03:02:31;;;;;;;15.40;10.57;;;;;;;-145.18;100.00;46623.28;5068632;28;20041;-60
2023/07/20 03:04:57;;;;;;;15.10;9.67;;;;;;;-145.18;100.00;46660.41;5071360;28;20035;-61
2023/07/20 03:07:22;;;;;;;17.27;11.13;;;;;;;-145.18;100.00;46627.19;5070735;28;20042;-60
2023/07/20 03:09:48;;;;;;;15.90;10.93;;;;;;;-145.18;100.00;46660.41;5069818;28;20028;-61
2023/07/20 03:12:13;;;;;;;15.10;9.60;;;;;;;-145.18;100.00;46625.22;5071013;28;20361;-61
2023/07/20 03:14:39;;;;;;;15.43;10.17;;;;;;;-145.18;100.00;46660.41;5069836;28;20032;-60
2023/07/20 03:17:04;;;;;;;14.13;9.80;;;;;;;-145.18;100.00;46625.22;5069779;28;20036;-61
2023/07/20 03:19:30;;;;;;;14.87;9.33;;;;;;;-145.18;100.00;46660.41;5070571;28;20024;-61
2023/07/20 03:21:55;;;;;;;15.13;10.07;;;;;;;-145.18;100.00;46660.41;5072303;28;20029;-61
2023/07/20 03:24:21;;;;;;;13.30;8.93;;;;;;;-145.18;100.00;46627.19;5065019;28;20060;-61
2023/07/20 03:26:46;;;;;;;14.90;9.37;;;;;;;-145.18;100.00;46627.19;5066155;28;20415;-64
2023/07/20 03:29:11;;;;;;;15.60;8.77;;;;;;;-145.18;100.00;46625.22;5070292;28;20090;-64
2023/07/20 03:31:37;;;;;;;14.37;10.10;;;;;;;-145.18;100.00;46660.41;5069094;28;20048;-64
2023/07/20 03:34:02;;;;;;;17.83;9.63;;;;;;;-145.18;100.00;46627.19;5066802;28;20480;-64
2023/07/20 03:36:28;;;;;;;15.53;10.03;;;;;;;-145.18;100.00;46629.13;5069071;28;20055;-64
2023/07/20 03:38:53;;;;;;;13.73;9.23;;;;;;;-145.18;100.00;46623.28;5069070;28;20028;-63
2023/07/20 03:41:19;;;;;;;14.73;9.47;;;;;;;-145.18;100.00;46625.22;5070305;28;20020;-64
2023/07/20 03:43:45;;;;;;;16.87;10.53;;;;;;;-145.18;100.00;46625.22;5070593;28;20380;-64
2023/07/20 03:46:10;;;;;;;14.87;9.87;;;;;;;-145.18;100.00;46621.31;5070551;28;20033;-64
2023/07/20 03:48:36;;;;;;;16.73;10.37;;;;;;;-145.18;100.00;46623.28;5070678;28;20025;-64
2023/07/20 03:51:01;;;;;;;13.80;9.47;;;;;;;-145.18;100.00;46623.28;5070243;28;20787;-64
2023/07/20 03:53:26;;;;;;;16.50;9.43;;;;;;;-145.18;100.00;46658.44;5069660;28;20035;-64
2023/07/20 03:55:53;;;;;;;14.80;9.27;;;;;;;-145.18;100.00;46623.28;5068082;28;20028;-64
2023/07/20 03:58:19;;;;;;;14.77;9.40;;;;;;;-145.18;100.00;46623.28;5068281;28;20036;-64
2023/07/20 04:00:46;;;;;;;15.33;9.40;;;;;;;-145.18;100.00;46619.38;5068894;28;20059;-64
2023/07/20 04:03:11;;;;;;;10.73;7.67;;;;;;;-145.18;100.00;46623.28;5069577;28;20037;-64
2023/07/20 04:05:37;;;;;;;13.13;7.17;;;;;;;-145.18;100.00;46623.28;5067448;28;20032;-64
2023/07/20 04:08:02;;;;;;;10.30;7.03;;;;;;;-145.18;100.00;46621.31;5074109;28;20077;-64
2023/07/20 04:10:28;;;;;;;11.30;7.67;;;;;;;-145.18;100.00;46619.38;5075796;28;20036;-64
2023/07/20 04:12:53;;;;;;;9.00;6.67;;;;;;;-145.18;100.00;46625.22;5072819;28;20055;-64
2023/07/20 04:15:18;;;;;;;9.83;6.93;;;;;;;-145.18;100.00;46621.31;5073919;28;20496;-64
2023/07/20 04:17:45;;;;;;;12.13;7.67;;;;;;;-145.18;100.00;46621.31;5074344;28;20203;-64
2023/07/20 04:20:11;;;;;;;8.57;5.77;;;;;;;-145.18;100.00;46621.31;5071315;28;20036;-64
2023/07/20 04:22:36;;;;;;;12.47;7.23;;;;;;;-145.18;100.00;46625.22;5073910;28;20029;-64
2023/07/20 04:25:02;;;;;;;9.67;5.90;;;;;;;-145.18;100.00;46629.13;5073916;28;20040;-64
2023/07/20 04:27:28;;;;;;;9.77;6.10;;;;;;;-145.18;100.00;46627.19;5070257;28;20516;-64
2023/07/20 04:29:53;;;;;;;8.40;5.90;;;;;;;-145.18;100.00;46623.28;5071990;28;20040;-64
2023/07/20 04:32:19;;;;;;;11.07;7.40;;;;;;;-145.18;100.00;46625.22;5072306;28;20043;-64
2023/07/20 04:34:44;;;;;;;8.47;6.23;;;;;;;-145.18;100.00;46625.22;5071352;28;20032;-64
2023/07/20 04:37:09;;;;;;;11.57;6.77;;;;;;;-145.18;100.00;46623.28;5073825;28;20043;-64
2023/07/20 04:39:35;;;;;;;11.70;6.70;;;;;;;-145.18;100.00;46621.31;5071912;28;20101;-65
2023/07/20 04:42:00;;;;;;;7.20;5.63;;;;;;;-145.18;100.00;46625.22;5073342;28;20132;-64
2023/07/20 04:44:26;;;;;;;9.13;6.17;;;;;;;-145.18;100.00;46627.19;5072332;28;20041;-64
2023/07/20 04:46:51;;;;;;;9.37;6.30;;;;;;;-145.18;100.00;46629.13;5067702;28;20037;-64
2023/07/20 04:49:16;;;;;;;9.67;5.73;;;;;;;-145.18;100.00;46625.22;5067037;28;20123;-64
2023/07/20 04:51:42;;;;;;;9.47;5.60;;;;;;;-145.18;100.00;46631.09;5073317;28;20039;-64
2023/07/20 04:54:07;;;;;;;8.50;6.53;;;;;;;-145.18;100.00;46627.19;5066070;28;20044;-64
2023/07/20 04:56:33;;;;;;;11.50;6.27;;;;;;;-145.18;100.00;46633.06;5070971;28;20403;-64
2023/07/20 04:58:59;;;;;;;9.07;6.27;;;;;;;-145.18;100.00;46629.13;5071632;28;20029;-64
2023/07/20 05:01:24;;;;;;;8.63;4.63;;;;;;;-145.18;100.00;46633.06;5067352;28;20028;-64
2023/07/20 05:03:50;;;;;;;8.70;5.93;;;;;;;-145.18;100.00;46633.06;5064989;28;20111;-64
2023/07/20 05:06:15;;;;;;;10.57;7.37;;;;;;;-145.18;100.00;46629.13;5073189;28;20035;-64
2023/07/20 05:08:41;;;;;;;9.47;6.30;;;;;;;-145.18;100.00;46631.09;5067479;28;20075;-64
2023/07/20 05:11:07;;;;;;;8.60;6.30;;;;;;;-145.18;100.00;46633.06;5065791;28;20024;-64
2023/07/20 05:13:33;;;;;;;7.77;5.73;;;;;;;-145.18;100.00;46633.06;5060661;28;20481;-64
2023/07/20 05:15:58;;;;;;;7.17;5.43;;;;;;;-145.18;100.00;46631.09;5072438;28;20362;-64
2023/07/20 05:18:24;;;;;;;8.83;6.07;;;;;;;-145.18;100.00;46629.13;5066828;28;20030;-64
2023/07/20 05:20:50;;;;;;;10.73;6.43;;;;;;;-145.18;100.00;46629.13;5067422;28;20024;-64
2023/07/20 05:23:22;;;;;;;9.17;6.30;;;;;;;-145.18;100.00;46625.22;5063991;28;20513;-65
2023/07/20 05:25:56;;;;;;;9.73;6.67;;;;;;;-145.18;100.00;46629.13;5054218;28;20516;-64
2023/07/20 05:28:23;;;;;;;11.03;6.63;;;;;;;-145.18;100.00;46629.13;5070176;28;20040;-64
2023/07/20 05:30:48;;;;;;;11.97;6.87;;;;;;;-145.18;100.00;46629.13;5070730;28;20027;-64
2023/07/20 05:33:14;;;;;;;11.60;7.70;;;;;;;-145.18;100.00;46627.19;5072171;28;20020;-64
2023/07/20 05:35:40;;;;;;;10.73;6.67;;;;;;;-145.18;100.00;46623.28;5072639;28;20031;-65
2023/07/20 05:38:06;;;;;;;11.40;7.37;;;;;;;-145.18;100.00;46621.31;5071901;28;20036;-64
2023/07/20 05:40:32;;;;;;;13.03;6.73;;;;;;;-145.18;100.00;46627.19;5066238;28;20033;-64
2023/07/20 05:42:57;;;;;;;10.17;7.23;;;;;;;-145.18;100.00;46621.31;5060753;28;20037;-64
2023/07/20 05:45:23;;;;;;;9.47;6.50;;;;;;;-145.18;100.00;46627.19;5072335;28;20032;-64
2023/07/20 05:47:48;;;;;;;10.13;7.20;;;;;;;-145.18;100.00;46621.31;5072132;28;20452;-61
2023/07/20 05:50:14;;;;;;;10.03;7.03;;;;;;;-145.18;100.00;46625.22;5069143;28;20447;-61
2023/07/20 05:52:40;;;;;;;8.40;5.50;;;;;;;-145.18;100.00;46627.19;5067372;28;20512;-61
2023/07/20 05:55:06;;;;;;;14.03;6.80;;;;;;;-145.18;100.00;46627.19;5065545;28;20039;-61
2023/07/20 05:57:31;;;;;;;12.17;6.13;;;;;;;-145.18;100.00;46629.13;5068123;28;20028;-60
2023/07/20 05:59:57;;;;;;;9.17;5.47;;;;;;;-145.18;100.00;46629.13;5064945;28;20041;-61
2023/07/20 06:02:22;;;;;;;11.17;5.97;;;;;;;-145.18;100.00;46627.19;5072033;28;20081;-61
2023/07/20 06:04:47;;;;;;;10.63;4.37;;;;;;;-145.18;100.00;46625.22;5072258;28;20040;-61
2023/07/20 06:07:13;;;;;;;6.03;4.70;;;;;;;-145.18;100.00;46627.19;5071959;28;20040;-61
2023/07/20 06:09:39;;;;;;;8.30;3.60;;;;;;;-145.18;100.00;46629.13;5063088;28;20027;-60
2023/07/20 06:12:05;;;;;;;5.97;4.27;;;;;;;-145.18;100.00;46631.09;5064966;28;20033;-61
2023/07/20 06:14:30;;;;;;;6.37;4.20;;;;;;;-145.18;100.00;46631.09;5069227;28;20040;-61
2023/07/20 06:16:56;;;;;;;5.67;3.30;;;;;;;-145.18;100.00;46631.09;5071446;28;20036;-61
2023/07/20 06:19:22;;;;;;;4.33;2.77;;;;;;;-145.18;100.00;46633.06;5066007;28;20028;-61
2023/07/20 06:21:49;;;;;;;5.07;3.00;;;;;;;-145.18;100.00;46636.94;5063268;28;20028;-61
2023/07/20 06:24:14;;;;;;;3.00;2.40;;;;;;;-145.18;100.00;46640.88;5071895;28;20067;-61
2023/07/20 06:26:41;;;;;;;5.17;2.90;;;;;;;-145.18;100.00;46640.88;5067164;28;20466;-61
2023/07/20 06:29:07;;;;;;;4.07;2.80;;;;;;;-145.18;100.00;46640.88;5069818;28;20085;-61
2023/07/20 06:31:34;;;;;;;3.70;2.73;;;;;;;-145.18;100.00;46642.81;5067346;28;20024;-61
2023/07/20 06:33:59;;;;;;;5.63;3.03;;;;;;;-145.18;100.00;46646.72;5071156;28;20024;-61
2023/07/20 06:36:26;;;;;;;4.07;2.40;;;;;;;-145.18;100.00;46642.81;5071890;28;20024;-61
2023/07/20 06:38:51;;;;;;;2.30;2.10;;;;;;;-145.18;100.00;46650.63;5072636;28;20036;-61
2023/07/20 06:41:17;;;;;;;4.20;2.70;;;;;;;-145.18;100.00;46644.78;5070959;28;20514;-61
2023/07/20 06:43:42;;;;;;;7.00;2.57;;;;;;;-145.18;100.00;46648.69;5069054;28;20032;-61
2023/07/20 06:46:08;;;;;;;4.33;2.30;;;;;;;-145.18;100.00;46654.53;5064381;28;20082;-60
2023/07/20 06:48:33;;;;;;;4.20;2.37;;;;;;;-145.18;100.00;46656.50;5071339;28;20054;-61
2023/07/20 06:50:58;;;;;;;3.23;2.27;;;;;;;-145.18;100.00;46660.41;5072381;28;20028;-61
2023/07/20 06:53:24;;;;;;;4.50;2.00;;;;;;;-145.18;100.00;46660.41;5072297;28;20052;-61
2023/07/20 06:55:49;;;;;;;6.07;1.70;;;;;;;-145.18;100.00;46660.41;5070973;28;20035;-61
2023/07/20 06:58:15;;;;;;;3.20;2.43;;;;;;;-145.18;100.00;46666.25;5072316;28;20575;-61
2023/07/20 07:00:40;;;;;;;4.63;2.20;;;;;;;-145.18;100.00;46662.34;5072486;28;20039;-61
2023/07/20 07:03:07;;;;;;;3.07;1.60;;;;;;;-145.18;100.00;46664.31;5071853;28;20488;-60
2023/07/20 07:05:36;;;;;;;4.20;2.00;;;;;;;-145.18;100.00;46664.31;5072429;28;20041;-61
2023/07/20 07:08:02;;;;;;;2.57;1.77;;;;;;;-145.18;100.00;46668.22;5070372;28;20110;-61
2023/07/20 07:10:27;;;;;;;3.20;1.30;;;;;;;-145.18;100.00;46670.16;5071424;28;20056;-61
2023/07/20 07:12:53;;;;;;;3.17;1.33;;;;;;;-145.18;100.00;46672.13;5072774;28;20033;-61
2023/07/20 07:15:18;;;;;;;1.77;1.30;;;;;;;-145.18;100.00;46677.97;5071885;28;20040;-61
2023/07/20 07:17:44;;;;;;;1.10;0.80;;;;;;;-145.18;100.00;46674.06;5080120;28;20551;-61
2023/07/20 07:20:09;;;;;;;4.23;1.10;;;;;;;-145.18;100.00;46677.97;5075221;28;20043;-61
2023/07/20 07:22:34;;;;;;;2.23;1.37;;;;;;;-145.18;100.00;46660.41;5070346;28;20048;-61
2023/07/20 07:25:00;;;;;;;1.47;0.90;;;;;;;-145.18;100.00;46652.59;5071948;28;20438;-61
2023/07/20 07:27:25;;;;;;;1.80;1.07;;;;;;;-145.18;100.00;46625.22;5071779;28;20054;-61
2023/07/20 07:29:51;;;;;;;1.50;0.90;;;;;;;-145.18;100.00;46603.75;5070262;28;20043;-61
2023/07/20 07:32:16;;;;;;;2.00;1.00;;;;;;;-145.18;100.00;46613.50;5071865;28;20028;-61
2023/07/20 07:34:46;;;;;;;1.83;1.10;;;;;;;-145.18;100.00;46545.16;5071483;28;20048;-61
2023/07/20 07:37:11;;;;;;;2.13;1.20;;;;;;;-145.18;100.00;46543.19;5071021;28;20074;-61
2023/07/20 07:39:37;;;;;;;2.80;1.00;;;;;;;-145.18;100.00;46551.00;5071532;28;20111;-61
2023/07/20 07:42:02;;;;;;;1.23;1.13;;;;;;;-145.18;100.00;46547.09;5075773;28;20029;-61
2023/07/20 07:44:28;;;;;;;1.87;1.43;;;;;;;-145.18;100.00;46551.00;5074474;28;20032;-61
2023/07/20 07:46:53;;;;;;;4.63;1.50;;;;;;;-145.18;100.00;46551.00;5075972;28;20491;-61
2023/07/20 07:49:19;;;;;;;2.07;1.50;;;;;;;-145.18;100.00;46552.97;5075997;28;20111;-61
2023/07/20 07:51:44;;;;;;;2.23;1.40;;;;;;;-145.18;100.00;46554.91;5075652;28;20039;-61
2023/07/20 07:54:10;;;;;;;2.07;1.30;;;;;;;-145.18;100.00;46549.06;5075648;28;20040;-61
2023/07/20 07:56:35;;;;;;;4.63;1.90;;;;;;;-145.18;100.00;46560.78;5075526;28;20056;-61
2023/07/20 07:59:01;;;;;;;2.30;1.63;;;;;;;-145.18;100.00;46560.78;5075728;28;20067;-61
2023/07/20 08:01:26;;;;;;;3.00;2.10;;;;;;;-145.18;100.00;46564.69;5075838;28;20127;-61
2023/07/20 08:03:51;;;;;;;3.90;2.00;;;;;;;-145.18;100.00;46568.59;5073971;28;20050;-61
2023/07/20 08:06:17;;;;;;;3.07;2.30;;;;;;;-145.18;100.00;46562.72;5075694;28;20078;-61
2023/07/20 08:08:42;;;;;;;5.13;2.27;;;;;;;-145.18;100.00;46560.78;5075268;28;20524;-61
2023/07/20 08:11:08;;;;;;;1.53;1.30;;;;;;;-145.18;100.00;46558.81;5073974;28;20040;-61
2023/07/20 08:13:35;;;;;;;2.63;1.47;;;;;;;-145.18;100.00;46558.81;5074873;28;20028;-61
2023/07/20 08:16:02;;;;;;;1.70;1.27;;;;;;;-145.18;100.00;46564.69;5075263;28;20024;-61
2023/07/20 08:18:28;;;;;;;2.77;1.73;;;;;;;-145.18;100.00;46556.88;5074932;28;20556;-61
2023/07/20 08:20:53;;;;;;;5.10;2.13;;;;;;;-145.18;100.00;46556.88;5074687;28;20104;-61
2023/07/20 08:23:20;;;;;;;1.97;1.77;;;;;;;-145.18;100.00;46558.81;5074811;28;20028;-61
2023/07/20 08:25:45;;;;;;;4.97;2.00;;;;;;;-145.18;100.00;46547.09;5074825;28;20016;-61
2023/07/20 08:28:15;;;;;;;2.83;1.40;;;;;;;-145.18;100.00;46564.69;5074450;28;20063;-61
2023/07/20 08:30:44;;;;;;;2.00;1.80;;;;;;;-145.18;100.00;46554.91;5074889;28;20028;-61
2023/07/20 08:33:12;;;;;;;4.33;1.70;;;;;;;-145.18;100.00;46556.88;5074892;28;20027;-61
2023/07/20 08:35:38;;;;;;;3.13;1.60;;;;;;;-145.18;100.00;46558.81;5074395;28;20041;-61
2023/07/20 08:38:04;;;;;;;2.80;1.50;;;;;;;-145.18;100.00;46562.72;5073502;28;20047;-61
2023/07/20 08:40:31;;;;;;;3.60;1.70;;;;;;;-145.18;100.00;46558.81;5074934;28;20036;-61
2023/07/20 08:42:59;;;;;;;4.70;1.50;;;;;;;-145.18;100.00;46560.78;5074498;28;20036;-61
2023/07/20 08:45:27;;;;;;;4.30;2.00;;;;;;;-145.18;100.00;46558.81;5074802;28;20040;-61
2023/07/20 08:47:55;;;;;;;4.00;2.10;;;;;;;-145.18;100.00;46560.78;5074359;28;20027;-61
2023/07/20 08:50:22;;;;;;;2.50;2.03;;;;;;;-145.18;100.00;46556.88;5074412;28;20047;-61
2023/07/20 08:52:48;;;;;;;3.00;2.00;;;;;;;-145.18;100.00;46564.69;5073500;28;20023;-62
2023/07/20 08:55:14;;;;;;;4.27;1.80;;;;;;;-145.18;100.00;46554.91;5074654;28;20389;-61
2023/07/20 08:57:41;;;;;;;2.57;1.73;;;;;;;-145.18;100.00;46554.91;5073247;28;20105;-61
2023/07/20 09:00:12;;;;;;;2.10;1.57;;;;;;;-145.18;100.00;46562.72;5074522;28;20560;-60
2023/07/20 09:02:41;;;;;;;4.17;1.60;;;;;;;-145.18;100.00;46570.53;5074196;28;20024;-62
2023/07/20 09:05:09;;;;;;;2.40;1.80;;;;;;;-145.18;100.00;46597.88;5074767;28;20032;-61
2023/07/20 09:07:36;;;;;;;1.73;1.60;;;;;;;-145.18;100.00;46568.59;5074091;28;20016;-61
2023/07/20 09:10:06;;;;;;;2.13;1.70;;;;;;;-145.18;100.00;46568.59;5074679;28;20115;-61
2023/07/20 09:12:35;;;;;;;2.13;1.80;;;;;;;-145.18;100.00;46576.41;5073745;28;20488;-61
2023/07/20 09:15:01;;;;;;;4.63;1.83;;;;;;;-145.18;100.00;46595.94;5074439;28;20054;-61
2023/07/20 09:17:26;;;;;;;1.40;1.30;;;;;;;-145.18;100.00;46670.16;5074512;28;20020;-61
2023/07/20 09:19:51;;;;;;;2.23;1.60;;;;;;;-145.18;100.00;46636.94;5074106;28;20491;-61
2023/07/20 09:22:17;;;;;;;1.43;1.30;;;;;;;-145.18;100.00;46619.38;5074294;28;20035;-60
2023/07/20 09:24:43;;;;;;;3.43;1.50;;;;;;;-145.18;100.00;46621.31;5073997;28;20442;-61
2023/07/20 09:27:09;;;;;;;1.67;1.40;;;;;;;-145.18;100.00;46597.88;5073757;28;20052;-61
2023/07/20 09:29:46;;;;;;;2.33;1.70;;;;;;;-145.18;100.00;46586.16;5072612;28;20056;-61
2023/07/20 09:32:12;;;;;;;3.80;1.50;;;;;;;-145.18;100.00;46592.03;5073909;28;20023;-61
2023/07/20 09:34:37;;;;;;;1.93;1.60;;;;;;;-145.18;100.00;46593.97;5073465;28;20024;-61
2023/07/20 09:37:03;;;;;;;2.27;1.47;;;;;;;-145.18;100.00;46580.31;5072512;28;20087;-61
2023/07/20 09:39:29;;;;;;;3.17;1.93;;;;;;;-145.18;100.00;46625.22;5073557;28;20119;-61
2023/07/20 09:41:59;;;;;;;1.87;1.40;;;;;;;-145.18;100.00;46590.06;5073066;28;20111;-61
2023/07/20 09:44:27;;;;;;;3.20;1.80;;;;;;;-145.18;100.00;46613.50;5073144;28;20494;-61
2023/07/20 09:46:53;;;;;;;2.03;1.53;;;;;;;-145.18;100.00;46593.97;5073794;28;20029;-61
2023/07/20 09:49:19;;;;;;;2.03;1.80;;;;;;;-145.18;100.00;46586.16;5073338;28;20035;-61
2023/07/20 09:51:46;;;;;;;2.43;1.87;;;;;;;-145.18;100.00;46627.19;5073101;28;20028;-61
2023/07/20 09:54:13;;;;;;;4.17;1.60;;;;;;;-145.18;100.00;46617.41;5073320;28;20490;-61
2023/07/20 09:56:40;;;;;;;3.13;1.87;;;;;;;-145.18;100.00;46584.22;5073324;28;20035;-61
2023/07/20 09:59:05;;;;;;;2.80;1.77;;;;;;;-145.18;100.00;46607.66;5073340;28;20036;-61
2023/07/20 10:01:32;;;;;;;2.70;1.70;;;;;;;-145.18;100.00;47105.78;5063805;28;20047;-61
2023/07/20 10:04:01;;;;;;;4.03;1.80;;;;;;;-145.18;100.00;47107.72;5069066;28;20090;-61
2023/07/20 10:06:29;;;;;;;2.10;1.90;;;;;;;-145.18;100.00;47068.66;5065206;28;20090;-61
2023/07/20 10:09:00;;;;;;;1.93;1.60;;;;;;;-145.18;100.00;47066.72;5062119;28;20052;-61
2023/07/20 10:11:29;;;;;;;2.27;1.53;;;;;;;-145.18;100.00;47037.41;5059730;28;20025;-61
2023/07/20 10:13:58;;;;;;;2.30;1.50;;;;;;;-145.18;100.00;47027.63;5071809;28;20023;-61
2023/07/20 10:16:36;;;;;;;3.40;1.70;;;;;;;-145.18;100.00;47047.19;5069316;28;20027;-61
2023/07/20 10:19:17;;;;;;;2.80;1.60;;;;;;;-145.18;100.00;47062.81;5068400;28;20032;-61
2023/07/20 10:21:48;;;;;;;1.93;1.80;;;;;;;-145.18;100.00;47055.00;5068803;28;20110;-61
2023/07/20 10:24:14;;;;;;;2.37;1.33;;;;;;;-145.18;100.00;47051.09;5068958;28;20021;-61
2023/07/20 10:26:40;;;;;;;1.30;1.20;;;;;;;-145.18;100.00;47062.81;5061678;28;20041;-61
2023/07/20 10:29:05;;;;;;;1.50;1.20;;;;;;;-145.18;100.00;47058.91;5064603;28;20025;-61
2023/07/20 10:31:32;;;;;;;1.63;1.53;;;;;;;-145.18;100.00;47058.91;5091517;28;20041;-61
2023/07/20 10:33:57;;;;;;;1.50;1.40;;;;;;;-145.18;100.00;47074.53;5068462;28;20090;-61
2023/07/20 10:36:27;;;;;;;2.17;1.40;;;;;;;-145.18;100.00;47049.13;5061562;28;20056;-61
2023/07/20 10:38:57;;;;;;;1.77;1.40;;;;;;;-145.18;100.00;47066.72;5064516;28;20017;-61
2023/07/20 10:41:28;;;;;;;2.10;1.60;;;;;;;-145.18;100.00;47058.91;5071408;28;20016;-61
2023/07/20 10:44:23;;;;;;;1.93;1.73;;;;;;;-145.18;100.00;47082.34;5063295;28;20040;-60
2023/07/20 10:46:48;;;;;;;3.43;1.53;;;;;;;-145.18;100.00;47090.16;5067811;28;20128;-61
2023/07/20 10:49:15;;;;;;;3.33;1.30;;;;;;;-145.18;100.00;47080.38;5072420;28;20440;-60
2023/07/20 10:51:46;;;;;;;4.63;1.50;;;;;;;-145.18;100.00;47055.00;5068435;28;20024;-61
2023/07/20 10:54:17;;;;;;;3.13;1.53;;;;;;;-145.18;100.00;47019.81;5067612;28;20504;-60
2023/07/20 10:56:47;;;;;;;1.50;1.40;;;;;;;-145.18;100.00;47013.97;5072576;28;20025;-61
2023/07/20 10:59:25;;;;;;;2.27;1.10;;;;;;;-145.18;100.00;47004.19;5072589;28;20025;-61
2023/07/20 11:02:01;;;;;;;2.70;1.40;;;;;;;-145.18;100.00;47037.41;5052253;28;20024;-61